Portada
METAR-TAF:

METAR-TAF

Aeroports :

Hamadan, Iran

latitud: 34-52-05N, longitud: 048-33-08E, altitud: 1757 m

Observació

L'informe es va fer fa 25 minuts, a les 18:00 UTC
Vent 4 kt del Sud/Sud-Est
Temperatura 22°C
Humitat 41%
Pressió 1019 hPa
Visibilitat 10 km o més
Escasses núvols a una alçada de 4000 ft, Cumulonimbus.
Núvols disperses a una alçada de 4500 ft

METAR: OIHH 161800Z 15004KT 9999 FEW040CB SCT045 22/08 Q1018 A3008

Hora: 22:55 (18:25 UTC)


TAF: manca

Observacions i pronòstics meteorològics de més de 4000 aeroports (METAR i TAF).

Les estacions disponibles són els punts grocs i vermells al mapa.

Posi el ratolí al punt desitjat per veure el nom de l'estació.

Feu clic per veure les observacions i els pronòstics meteorològics.

Per canviar el mapa: feu clic els botons verds amb una creu de color negre per apropar; al botó verd amb un guió per allunyar la imatge; o en les fletxes verdes per a mapes adjacents.


METAR-TAF: